sensor_id;sensor_type;location;lat;lon;timestamp;P1;durP1;ratioP1;P2;durP2;ratioP2
26914;SDS011;14480;52.608;13.416;2022-11-20T18:35:16;28.48;;;14.38;;
26914;SDS011;14480;52.608;13.416;2022-11-20T18:45:23;27.85;;;14.48;;
26914;SDS011;14480;52.608;13.416;2022-11-20T18:50:30;26.58;;;14.07;;
26914;SDS011;14480;52.608;13.416;2022-11-20T18:55:36;23.65;;;13.43;;
26914;SDS011;14480;52.608;13.416;2022-11-20T19:00:40;25.83;;;13.93;;
26914;SDS011;14480;52.608;13.416;2022-11-20T19:05:45;24.65;;;13.73;;
26914;SDS011;14480;52.608;13.416;2022-11-20T19:10:51;27.52;;;13.80;;
26914;SDS011;14480;52.608;13.416;2022-11-20T19:15:54;24.67;;;13.57;;
26914;SDS011;14480;52.608;13.416;2022-11-20T19:21:07;26.00;;;13.75;;
26914;SDS011;14480;52.608;13.416;2022-11-20T19:26:11;29.33;;;13.68;;
26914;SDS011;14480;52.608;13.416;2022-11-20T19:31:16;24.77;;;14.10;;
26914;SDS011;14480;52.608;13.416;2022-11-20T19:36:27;26.50;;;13.85;;
26914;SDS011;14480;52.608;13.416;2022-11-20T19:41:32;26.55;;;13.68;;
26914;SDS011;14480;52.608;13.416;2022-11-20T19:46:37;30.63;;;14.95;;
26914;SDS011;14480;52.608;13.416;2022-11-20T19:51:44;26.97;;;14.63;;
26914;SDS011;14480;52.608;13.416;2022-11-20T19:56:51;27.80;;;14.77;;
26914;SDS011;14480;52.608;13.416;2022-11-20T20:01:55;27.17;;;14.40;;
26914;SDS011;14480;52.608;13.416;2022-11-20T20:07:01;34.85;;;13.93;;
26914;SDS011;14480;52.608;13.416;2022-11-20T20:12:07;25.60;;;13.68;;
26914;SDS011;14480;52.608;13.416;2022-11-20T20:17:13;24.83;;;13.23;;
26914;SDS011;14480;52.608;13.416;2022-11-20T20:22:18;23.58;;;13.15;;
26914;SDS011;14480;52.608;13.416;2022-11-20T20:27:25;27.38;;;14.48;;
26914;SDS011;14480;52.608;13.416;2022-11-20T20:32:29;22.70;;;13.32;;
26914;SDS011;14480;52.608;13.416;2022-11-20T20:37:34;25.53;;;13.40;;
26914;SDS011;14480;52.608;13.416;2022-11-20T20:42:38;28.95;;;14.07;;
26914;SDS011;14480;52.608;13.416;2022-11-20T20:47:41;27.92;;;13.85;;
26914;SDS011;14480;52.608;13.416;2022-11-20T20:52:47;31.25;;;14.77;;
26914;SDS011;14480;52.608;13.416;2022-11-20T20:57:51;33.42;;;16.20;;
26914;SDS011;14480;52.608;13.416;2022-11-20T21:02:56;32.40;;;17.08;;
26914;SDS011;14480;52.608;13.416;2022-11-20T21:08:01;30.48;;;16.42;;
26914;SDS011;14480;52.608;13.416;2022-11-20T21:13:23;33.97;;;17.10;;
26914;SDS011;14480;52.608;13.416;2022-11-20T21:18:27;33.13;;;16.83;;
26914;SDS011;14480;52.608;13.416;2022-11-20T21:23:33;31.40;;;16.93;;
26914;SDS011;14480;52.608;13.416;2022-11-20T21:28:37;30.83;;;17.13;;
26914;SDS011;14480;52.608;13.416;2022-11-20T21:33:42;31.42;;;16.50;;
26914;SDS011;14480;52.608;13.416;2022-11-20T21:38:49;34.97;;;17.85;;
26914;SDS011;14480;52.608;13.416;2022-11-20T21:43:54;40.03;;;20.15;;
26914;SDS011;14480;52.608;13.416;2022-11-20T21:54:24;33.57;;;17.00;;
26914;SDS011;14480;52.608;13.416;2022-11-20T21:59:28;34.38;;;17.27;;
26914;SDS011;14480;52.608;13.416;2022-11-20T22:04:32;32.40;;;16.48;;
26914;SDS011;14480;52.608;13.416;2022-11-20T22:09:37;33.47;;;16.92;;
26914;SDS011;14480;52.608;13.416;2022-11-20T22:14:43;30.88;;;16.23;;
26914;SDS011;14480;52.608;13.416;2022-11-20T22:19:47;35.38;;;17.23;;
26914;SDS011;14480;52.608;13.416;2022-11-20T22:24:52;33.05;;;17.27;;
26914;SDS011;14480;52.608;13.416;2022-11-20T22:29:57;34.05;;;16.52;;
26914;SDS011;14480;52.608;13.416;2022-11-20T22:35:01;25.75;;;12.63;;
26914;SDS011;14480;52.608;13.416;2022-11-20T22:40:09;35.90;;;18.58;;
26914;SDS011;14480;52.608;13.416;2022-11-20T22:45:16;47.92;;;22.20;;
26914;SDS011;14480;52.608;13.416;2022-11-20T22:50:19;39.35;;;19.17;;
26914;SDS011;14480;52.608;13.416;2022-11-20T22:55:25;37.28;;;19.70;;
26914;SDS011;14480;52.608;13.416;2022-11-20T23:00:28;37.97;;;17.27;;
